sensor_id;sensor_type;location;lat;lon;timestamp;pressure;altitude;pressure_sealevel;temperature;humidity
26807;BME280;14380;49.910;6.792;2023-02-20T00:02:16;99950.22;;;5.47;100.00
26807;BME280;14380;49.910;6.792;2023-02-20T00:04:42;99943.41;;;5.34;100.00
26807;BME280;14380;49.910;6.792;2023-02-20T00:07:09;99941.00;;;5.21;100.00
26807;BME280;14380;49.910;6.792;2023-02-20T00:09:36;99947.72;;;5.40;100.00
26807;BME280;14380;49.910;6.792;2023-02-20T00:12:04;99949.63;;;5.28;100.00
26807;BME280;14380;49.910;6.792;2023-02-20T00:14:31;99949.66;;;5.25;100.00
26807;BME280;14380;49.910;6.792;2023-02-20T00:16:58;99947.72;;;5.38;100.00
26807;BME280;14380;49.910;6.792;2023-02-20T00:19:24;99942.81;;;5.16;100.00
26807;BME280;14380;49.910;6.792;2023-02-20T00:21:51;99939.09;;;5.31;100.00
26807;BME280;14380;49.910;6.792;2023-02-20T00:24:19;99936.69;;;5.16;100.00
26807;BME280;14380;49.910;6.792;2023-02-20T00:26:46;99938.03;;;4.81;100.00
26807;BME280;14380;49.910;6.792;2023-02-20T00:29:15;99933.72;;;4.78;100.00
26807;BME280;14380;49.910;6.792;2023-02-20T00:31:42;99939.84;;;4.77;100.00
26807;BME280;14380;49.910;6.792;2023-02-20T00:34:09;99941.03;;;4.50;100.00
26807;BME280;14380;49.910;6.792;2023-02-20T00:36:36;99936.41;;;4.72;100.00
26807;BME280;14380;49.910;6.792;2023-02-20T00:39:02;99930.88;;;4.94;100.00
26807;BME280;14380;49.910;6.792;2023-02-20T00:41:29;99931.66;;;5.03;100.00
26807;BME280;14380;49.910;6.792;2023-02-20T00:43:56;99924.72;;;4.98;100.00
26807;BME280;14380;49.910;6.792;2023-02-20T00:46:24;99929.00;;;5.06;100.00
26807;BME280;14380;49.910;6.792;2023-02-20T00:48:51;99932.66;;;4.93;100.00
26807;BME280;14380;49.910;6.792;2023-02-20T00:51:18;99923.16;;;4.86;100.00
26807;BME280;14380;49.910;6.792;2023-02-20T00:53:45;99920.38;;;4.97;100.00
26807;BME280;14380;49.910;6.792;2023-02-20T00:56:11;99922.03;;;5.04;100.00
26807;BME280;14380;49.910;6.792;2023-02-20T00:58:38;99912.31;;;5.11;100.00
26807;BME280;14380;49.910;6.792;2023-02-20T01:01:05;99904.78;;;4.87;100.00
26807;BME280;14380;49.910;6.792;2023-02-20T01:03:34;99911.28;;;4.60;100.00
26807;BME280;14380;49.910;6.792;2023-02-20T01:06:01;99912.41;;;4.36;100.00
26807;BME280;14380;49.910;6.792;2023-02-20T01:08:28;99912.47;;;4.28;100.00
26807;BME280;14380;49.910;6.792;2023-02-20T01:10:54;99908.03;;;4.38;100.00
26807;BME280;14380;49.910;6.792;2023-02-20T01:13:21;99906.16;;;4.49;100.00
26807;BME280;14380;49.910;6.792;2023-02-20T01:15:48;99912.22;;;4.53;100.00
26807;BME280;14380;49.910;6.792;2023-02-20T01:18:15;99915.59;;;4.63;100.00
26807;BME280;14380;49.910;6.792;2023-02-20T01:20:43;99918.06;;;4.73;100.00
26807;BME280;14380;49.910;6.792;2023-02-20T01:23:10;99908.47;;;4.74;100.00
26807;BME280;14380;49.910;6.792;2023-02-20T01:25:37;99898.88;;;4.74;100.00
26807;BME280;14380;49.910;6.792;2023-02-20T01:28:04;99904.94;;;4.76;100.00
26807;BME280;14380;49.910;6.792;2023-02-20T01:30:31;99900.69;;;4.68;100.00
26807;BME280;14380;49.910;6.792;2023-02-20T01:32:57;99903.78;;;4.27;100.00
26807;BME280;14380;49.910;6.792;2023-02-20T01:35:24;99901.28;;;4.18;100.00
26807;BME280;14380;49.910;6.792;2023-02-20T01:37:57;99897.00;;;4.08;100.00
26807;BME280;14380;49.910;6.792;2023-02-20T01:40:25;99897.84;;;4.14;100.00
26807;BME280;14380;49.910;6.792;2023-02-20T01:42:52;99907.38;;;4.17;100.00
26807;BME280;14380;49.910;6.792;2023-02-20T01:45:31;99902.31;;;4.00;100.00
26807;BME280;14380;49.910;6.792;2023-02-20T01:47:58;99917.91;;;4.11;100.00
26807;BME280;14380;49.910;6.792;2023-02-20T01:50:29;99903.84;;;4.21;100.00
26807;BME280;14380;49.910;6.792;2023-02-20T01:53:00;99905.00;;;3.94;100.00
26807;BME280;14380;49.910;6.792;2023-02-20T01:55:30;99897.13;;;3.97;100.00
26807;BME280;14380;49.910;6.792;2023-02-20T01:58:02;99901.38;;;4.06;100.00
26807;BME280;14380;49.910;6.792;2023-02-20T02:00:31;99896.28;;;3.95;100.00
26807;BME280;14380;49.910;6.792;2023-02-20T02:03:01;99893.66;;;3.95;100.00
26807;BME280;14380;49.910;6.792;2023-02-20T02:05:31;99899.53;;;4.17;100.00
26807;BME280;14380;49.910;6.792;2023-02-20T02:08:02;99893.56;;;4.07;100.00
26807;BME280;14380;49.910;6.792;2023-02-20T02:10:46;99891.06;;;3.93;100.00
26807;BME280;14380;49.910;6.792;2023-02-20T02:13:16;99890.31;;;3.77;100.00
26807;BME280;14380;49.910;6.792;2023-02-20T02:15:43;99886.78;;;3.84;100.00
26807;BME280;14380;49.910;6.792;2023-02-20T02:18:23;99901.78;;;3.62;100.00
26807;BME280;14380;49.910;6.792;2023-02-20T02:21:31;99891.28;;;3.70;100.00
26807;BME280;14380;49.910;6.792;2023-02-20T02:24:29;99888.00;;;3.48;100.00
26807;BME280;14380;49.910;6.792;2023-02-20T02:27:24;99893.94;;;3.67;100.00
26807;BME280;14380;49.910;6.792;2023-02-20T02:30:30;99894.69;;;3.80;100.00
26807;BME280;14380;49.910;6.792;2023-02-20T02:33:22;99887.78;;;3.72;100.00
26807;BME280;14380;49.910;6.792;2023-02-20T02:36:17;99886.22;;;3.51;100.00
26807;BME280;14380;49.910;6.792;2023-02-20T02:38:54;99883.72;;;3.37;100.00
26807;BME280;14380;49.910;6.792;2023-02-20T02:41:34;99881.97;;;3.39;100.00
26807;BME280;14380;49.910;6.792;2023-02-20T02:44:11;99868.06;;;3.37;100.00
26807;BME280;14380;49.910;6.792;2023-02-20T02:46:42;99869.84;;;3.29;100.00
26807;BME280;14380;49.910;6.792;2023-02-20T02:49:16;99871.47;;;3.44;100.00
26807;BME280;14380;49.910;6.792;2023-02-20T02:51:48;99867.97;;;3.48;100.00
26807;BME280;14380;49.910;6.792;2023-02-20T02:54:17;99867.97;;;3.48;100.00
26807;BME280;14380;49.910;6.792;2023-02-20T02:56:47;99865.16;;;3.73;100.00
26807;BME280;14380;49.910;6.792;2023-02-20T02:59:19;99856.44;;;3.74;100.00
26807;BME280;14380;49.910;6.792;2023-02-20T03:01:51;99854.53;;;3.89;100.00
26807;BME280;14380;49.910;6.792;2023-02-20T03:04:20;99855.50;;;3.80;100.00
26807;BME280;14380;49.910;6.792;2023-02-20T03:06:52;99855.41;;;3.87;100.00
26807;BME280;14380;49.910;6.792;2023-02-20T03:09:23;99853.66;;;3.90;100.00
26807;BME280;14380;49.910;6.792;2023-02-20T03:11:53;99846.50;;;4.06;100.00
26807;BME280;14380;49.910;6.792;2023-02-20T03:14:26;99845.75;;;3.96;100.00
26807;BME280;14380;49.910;6.792;2023-02-20T03:17:14;99843.94;;;4.04;100.00
26807;BME280;14380;49.910;6.792;2023-02-20T03:19:46;99835.00;;;4.22;100.00
26807;BME280;14380;49.910;6.792;2023-02-20T03:22:20;99823.50;;;4.39;100.00
26807;BME280;14380;49.910;6.792;2023-02-20T03:24:51;99827.72;;;4.47;100.00
26807;BME280;14380;49.910;6.792;2023-02-20T03:27:28;99828.41;;;4.60;100.00
26807;BME280;14380;49.910;6.792;2023-02-20T03:30:06;99825.78;;;4.64;100.00
26807;BME280;14380;49.910;6.792;2023-02-20T03:32:33;99822.31;;;4.63;100.00
26807;BME280;14380;49.910;6.792;2023-02-20T03:35:22;99825.00;;;4.55;100.00
26807;BME280;14380;49.910;6.792;2023-02-20T03:38:09;99827.00;;;4.38;100.00
26807;BME280;14380;49.910;6.792;2023-02-20T03:40:55;99834.13;;;4.23;100.00
26807;BME280;14380;49.910;6.792;2023-02-20T03:43:41;99837.69;;;4.18;100.00
26807;BME280;14380;49.910;6.792;2023-02-20T03:46:13;99840.91;;;4.40;100.00
26807;BME280;14380;49.910;6.792;2023-02-20T03:48:45;99848.97;;;4.21;100.00
26807;BME280;14380;49.910;6.792;2023-02-20T03:51:14;99842.03;;;4.17;100.00
26807;BME280;14380;49.910;6.792;2023-02-20T03:53:45;99852.56;;;4.12;100.00
26807;BME280;14380;49.910;6.792;2023-02-20T03:56:14;99846.56;;;3.99;100.00
26807;BME280;14380;49.910;6.792;2023-02-20T03:58:46;99843.88;;;4.09;100.00
26807;BME280;14380;49.910;6.792;2023-02-20T04:01:16;99845.81;;;3.91;100.00
26807;BME280;14380;49.910;6.792;2023-02-20T04:03:47;99843.03;;;4.05;100.00
26807;BME280;14380;49.910;6.792;2023-02-20T04:06:15;99835.97;;;4.16;100.00
26807;BME280;14380;49.910;6.792;2023-02-20T04:08:51;99826.06;;;4.40;100.00
26807;BME280;14380;49.910;6.792;2023-02-20T04:11:21;99820.00;;;4.40;100.00
26807;BME280;14380;49.910;6.792;2023-02-20T04:13:50;99823.47;;;4.40;100.00
26807;BME280;14380;49.910;6.792;2023-02-20T04:16:18;99819.72;;;4.60;100.00
26807;BME280;14380;49.910;6.792;2023-02-20T04:18:46;99821.13;;;4.83;100.00
26807;BME280;14380;49.910;6.792;2023-02-20T04:21:18;99811.97;;;5.13;100.00
26807;BME280;14380;49.910;6.792;2023-02-20T04:23:53;99809.31;;;5.15;100.00
26807;BME280;14380;49.910;6.792;2023-02-20T04:26:23;99809.94;;;5.29;100.00
26807;BME280;14380;49.910;6.792;2023-02-20T04:28:51;99814.09;;;5.43;100.00
26807;BME280;14380;49.910;6.792;2023-02-20T04:31:19;99814.66;;;5.60;100.00
26807;BME280;14380;49.910;6.792;2023-02-20T04:33:47;99820.13;;;5.48;100.00
26807;BME280;14380;49.910;6.792;2023-02-20T04:36:13;99827.38;;;5.82;100.00
26807;BME280;14380;49.910;6.792;2023-02-20T04:38:40;99822.94;;;5.86;100.00
26807;BME280;14380;49.910;6.792;2023-02-20T04:41:08;99823.81;;;5.85;100.00
26807;BME280;14380;49.910;6.792;2023-02-20T04:43:35;99820.19;;;5.92;100.00
26807;BME280;14380;49.910;6.792;2023-02-20T04:46:01;99821.97;;;5.91;100.00
26807;BME280;14380;49.910;6.792;2023-02-20T04:48:28;99816.13;;;5.77;100.00
26807;BME280;14380;49.910;6.792;2023-02-20T04:50:54;99811.78;;;5.74;100.00
26807;BME280;14380;49.910;6.792;2023-02-20T04:53:21;99809.06;;;5.80;100.00
26807;BME280;14380;49.910;6.792;2023-02-20T04:55:47;99811.50;;;5.90;100.00
26807;BME280;14380;49.910;6.792;2023-02-20T04:58:15;99812.75;;;5.70;100.00
26807;BME280;14380;49.910;6.792;2023-02-20T05:00:42;99814.59;;;5.63;100.00
26807;BME280;14380;49.910;6.792;2023-02-20T05:03:08;99811.28;;;5.52;100.00
26807;BME280;14380;49.910;6.792;2023-02-20T05:05:35;99811.28;;;5.54;100.00
26807;BME280;14380;49.910;6.792;2023-02-20T05:08:03;99812.22;;;5.49;100.00
26807;BME280;14380;49.910;6.792;2023-02-20T05:10:33;99815.66;;;5.53;100.00
26807;BME280;14380;49.910;6.792;2023-02-20T05:13:00;99819.84;;;5.63;100.00
26807;BME280;14380;49.910;6.792;2023-02-20T05:15:30;99817.16;;;5.66;100.00
26807;BME280;14380;49.910;6.792;2023-02-20T05:17:56;99822.56;;;5.57;100.00
26807;BME280;14380;49.910;6.792;2023-02-20T05:20:23;99815.63;;;5.55;100.00
26807;BME280;14380;49.910;6.792;2023-02-20T05:23:10;99828.44;;;5.72;100.00
26807;BME280;14380;49.910;6.792;2023-02-20T05:25:36;99819.91;;;5.60;100.00
26807;BME280;14380;49.910;6.792;2023-02-20T05:28:03;99823.69;;;5.44;100.00
26807;BME280;14380;49.910;6.792;2023-02-20T05:30:31;99824.53;;;5.44;100.00
26807;BME280;14380;49.910;6.792;2023-02-20T05:32:57;99816.44;;;5.60;100.00
26807;BME280;14380;49.910;6.792;2023-02-20T05:35:24;99826.75;;;5.68;100.00
26807;BME280;14380;49.910;6.792;2023-02-20T05:37:50;99824.34;;;5.57;100.00
26807;BME280;14380;49.910;6.792;2023-02-20T05:40:17;99818.22;;;5.58;100.00
26807;BME280;14380;49.910;6.792;2023-02-20T05:42:43;99807.75;;;5.56;100.00
26807;BME280;14380;49.910;6.792;2023-02-20T05:45:10;99818.50;;;5.41;100.00
26807;BME280;14380;49.910;6.792;2023-02-20T05:47:38;99807.75;;;5.56;100.00
26807;BME280;14380;49.910;6.792;2023-02-20T05:50:05;99822.72;;;5.49;100.00
26807;BME280;14380;49.910;6.792;2023-02-20T05:52:32;99816.53;;;5.54;100.00
26807;BME280;14380;49.910;6.792;2023-02-20T05:54:58;99813.06;;;5.51;100.00
26807;BME280;14380;49.910;6.792;2023-02-20T05:57:25;99815.69;;;5.51;100.00
26807;BME280;14380;49.910;6.792;2023-02-20T05:59:52;99813.75;;;5.63;100.00
26807;BME280;14380;49.910;6.792;2023-02-20T06:02:19;99804.38;;;5.49;100.00
26807;BME280;14380;49.910;6.792;2023-02-20T06:04:47;99805.97;;;5.58;100.00
26807;BME280;14380;49.910;6.792;2023-02-20T06:07:13;99805.16;;;5.55;100.00
26807;BME280;14380;49.910;6.792;2023-02-20T06:09:41;99804.28;;;5.54;100.00
26807;BME280;14380;49.910;6.792;2023-02-20T06:12:08;99806.69;;;5.68;100.00
26807;BME280;14380;49.910;6.792;2023-02-20T06:14:35;99805.78;;;5.69;100.00
26807;BME280;14380;49.910;6.792;2023-02-20T06:17:02;99806.00;;;5.55;100.00
26807;BME280;14380;49.910;6.792;2023-02-20T06:19:28;99805.69;;;5.74;100.00
26807;BME280;14380;49.910;6.792;2023-02-20T06:21:56;99815.91;;;5.88;100.00
26807;BME280;14380;49.910;6.792;2023-02-20T06:24:24;99803.97;;;5.73;100.00
26807;BME280;14380;49.910;6.792;2023-02-20T06:26:50;99809.09;;;5.77;100.00
26807;BME280;14380;49.910;6.792;2023-02-20T06:29:17;99817.56;;;5.93;100.00
26807;BME280;14380;49.910;6.792;2023-02-20T06:31:44;99811.09;;;6.13;100.00
26807;BME280;14380;49.910;6.792;2023-02-20T06:34:14;99817.63;;;5.90;100.00
26807;BME280;14380;49.910;6.792;2023-02-20T06:36:42;99820.31;;;5.87;100.00
26807;BME280;14380;49.910;6.792;2023-02-20T06:39:13;99815.69;;;5.99;100.00
26807;BME280;14380;49.910;6.792;2023-02-20T06:41:40;99824.38;;;6.04;100.00
26807;BME280;14380;49.910;6.792;2023-02-20T06:44:07;99822.44;;;6.14;100.00
26807;BME280;14380;49.910;6.792;2023-02-20T06:46:34;99817.31;;;6.07;100.00
26807;BME280;14380;49.910;6.792;2023-02-20T06:49:00;99823.53;;;6.03;100.00
26807;BME280;14380;49.910;6.792;2023-02-20T06:51:29;99820.50;;;6.22;100.00
26807;BME280;14380;49.910;6.792;2023-02-20T06:53:56;99823.75;;;5.89;100.00
26807;BME280;14380;49.910;6.792;2023-02-20T06:56:27;99826.44;;;5.86;100.00
26807;BME280;14380;49.910;6.792;2023-02-20T06:58:54;99817.34;;;6.06;100.00
26807;BME280;14380;49.910;6.792;2023-02-20T07:01:23;99833.28;;;5.93;100.00
26807;BME280;14380;49.910;6.792;2023-02-20T07:03:51;99828.97;;;5.91;100.00
26807;BME280;14380;49.910;6.792;2023-02-20T07:06:19;99832.56;;;5.85;100.00
26807;BME280;14380;49.910;6.792;2023-02-20T07:08:46;99837.53;;;6.02;100.00
26807;BME280;14380;49.910;6.792;2023-02-20T07:11:13;99832.06;;;6.15;100.00
26807;BME280;14380;49.910;6.792;2023-02-20T07:13:43;99843.63;;;6.03;100.00
26807;BME280;14380;49.910;6.792;2023-02-20T07:16:10;99837.84;;;6.31;100.00
26807;BME280;14380;49.910;6.792;2023-02-20T07:18:36;99827.81;;;6.06;100.00
26807;BME280;14380;49.910;6.792;2023-02-20T07:21:03;99827.53;;;6.21;100.00
26807;BME280;14380;49.910;6.792;2023-02-20T07:23:30;99828.09;;;5.90;100.00
26807;BME280;14380;49.910;6.792;2023-02-20T07:25:57;99827.66;;;6.15;100.00
26807;BME280;14380;49.910;6.792;2023-02-20T07:28:23;99830.00;;;6.29;100.00
26807;BME280;14380;49.910;6.792;2023-02-20T07:30:51;99832.88;;;6.17;100.00
26807;BME280;14380;49.910;6.792;2023-02-20T07:33:18;99825.47;;;6.37;100.00
26807;BME280;14380;49.910;6.792;2023-02-20T07:35:45;99826.59;;;6.24;100.00
26807;BME280;14380;49.910;6.792;2023-02-20T07:38:12;99827.16;;;6.40;100.00
26807;BME280;14380;49.910;6.792;2023-02-20T07:40:38;99825.06;;;6.14;100.00
26807;BME280;14380;49.910;6.792;2023-02-20T07:43:05;99829.16;;;6.27;100.00
26807;BME280;14380;49.910;6.792;2023-02-20T07:45:32;99824.94;;;6.62;100.00
26807;BME280;14380;49.910;6.792;2023-02-20T07:48:00;99824.31;;;6.51;100.00
26807;BME280;14380;49.910;6.792;2023-02-20T07:50:26;99820.75;;;6.53;100.00
26807;BME280;14380;49.910;6.792;2023-02-20T07:52:53;99821.09;;;6.36;100.00
26807;BME280;14380;49.910;6.792;2023-02-20T07:55:20;99820.88;;;6.47;100.00
26807;BME280;14380;49.910;6.792;2023-02-20T07:57:49;99818.25;;;6.47;100.00
26807;BME280;14380;49.910;6.792;2023-02-20T08:00:17;99831.00;;;6.23;100.00
26807;BME280;14380;49.910;6.792;2023-02-20T08:02:45;99830.16;;;6.20;100.00
26807;BME280;14380;49.910;6.792;2023-02-20T08:05:13;99832.06;;;6.57;100.00
26807;BME280;14380;49.910;6.792;2023-02-20T08:07:43;99828.75;;;6.47;100.00
26807;BME280;14380;49.910;6.792;2023-02-20T08:10:11;99830.75;;;6.36;100.00
26807;BME280;14380;49.910;6.792;2023-02-20T08:12:38;99827.91;;;6.45;100.00
26807;BME280;14380;49.910;6.792;2023-02-20T08:15:05;99824.25;;;6.54;100.00
26807;BME280;14380;49.910;6.792;2023-02-20T08:17:31;99828.47;;;6.61;100.00
26807;BME280;14380;49.910;6.792;2023-02-20T08:19:58;99818.72;;;6.66;100.00
26807;BME280;14380;49.910;6.792;2023-02-20T08:22:26;99816.50;;;6.87;100.00
26807;BME280;14380;49.910;6.792;2023-02-20T08:24:53;99820.69;;;6.96;100.00
26807;BME280;14380;49.910;6.792;2023-02-20T08:27:19;99810.78;;;6.69;100.00
26807;BME280;14380;49.910;6.792;2023-02-20T08:29:46;99815.41;;;6.97;100.00
26807;BME280;14380;49.910;6.792;2023-02-20T08:32:12;99815.63;;;6.88;100.00
26807;BME280;14380;49.910;6.792;2023-02-20T08:34:39;99811.16;;;6.92;100.00
26807;BME280;14380;49.910;6.792;2023-02-20T08:37:05;99812.72;;;6.99;100.00
26807;BME280;14380;49.910;6.792;2023-02-20T08:39:35;99816.19;;;7.01;100.00
26807;BME280;14380;49.910;6.792;2023-02-20T08:42:02;99814.59;;;6.94;100.00
26807;BME280;14380;49.910;6.792;2023-02-20T08:44:29;99821.25;;;7.09;100.00
26807;BME280;14380;49.910;6.792;2023-02-20T08:46:56;99816.03;;;7.07;100.00
26807;BME280;14380;49.910;6.792;2023-02-20T08:49:22;99820.75;;;7.29;100.00
26807;BME280;14380;49.910;6.792;2023-02-20T08:51:53;99813.81;;;6.90;100.00
26807;BME280;14380;49.910;6.792;2023-02-20T08:54:21;99817.72;;;7.10;100.00
26807;BME280;14380;49.910;6.792;2023-02-20T08:56:49;99811.88;;;6.98;100.00
26807;BME280;14380;49.910;6.792;2023-02-20T08:59:15;99808.09;;;7.10;100.00
26807;BME280;14380;49.910;6.792;2023-02-20T09:01:42;99809.97;;;7.41;100.00
26807;BME280;14380;49.910;6.792;2023-02-20T09:04:09;99804.69;;;7.43;100.00
26807;BME280;14380;49.910;6.792;2023-02-20T09:06:36;99805.00;;;7.64;100.00
26807;BME280;14380;49.910;6.792;2023-02-20T09:09:03;99806.97;;;7.21;100.00
26807;BME280;14380;49.910;6.792;2023-02-20T09:11:30;99808.91;;;7.49;100.00
26807;BME280;14380;49.910;6.792;2023-02-20T09:13:58;99800.56;;;7.33;100.00
26807;BME280;14380;49.910;6.792;2023-02-20T09:16:24;99808.44;;;7.33;100.00
26807;BME280;14380;49.910;6.792;2023-02-20T09:18:52;99811.75;;;7.39;100.00
26807;BME280;14380;49.910;6.792;2023-02-20T09:21:21;99805.66;;;7.39;100.00
26807;BME280;14380;49.910;6.792;2023-02-20T09:23:48;99809.88;;;7.46;100.00
26807;BME280;14380;49.910;6.792;2023-02-20T09:26:14;99805.44;;;7.81;100.00
26807;BME280;14380;49.910;6.792;2023-02-20T09:28:41;99803.34;;;7.61;100.00
26807;BME280;14380;49.910;6.792;2023-02-20T09:31:09;99790.25;;;7.91;100.00
26807;BME280;14380;49.910;6.792;2023-02-20T09:33:36;99805.09;;;7.61;100.00
26807;BME280;14380;49.910;6.792;2023-02-20T09:36:03;99812.28;;;7.87;100.00
26807;BME280;14380;49.910;6.792;2023-02-20T09:38:30;99803.91;;;8.06;100.00
26807;BME280;14380;49.910;6.792;2023-02-20T09:40:59;99797.34;;;7.89;100.00
26807;BME280;14380;49.910;6.792;2023-02-20T09:43:37;99799.38;;;8.41;100.00
26807;BME280;14380;49.910;6.792;2023-02-20T09:46:10;99806.91;;;7.92;100.00
26807;BME280;14380;49.910;6.792;2023-02-20T09:48:47;99807.44;;;8.04;100.00
26807;BME280;14380;49.910;6.792;2023-02-20T09:51:20;99812.81;;;8.00;100.00
26807;BME280;14380;49.910;6.792;2023-02-20T09:53:52;99801.56;;;8.26;100.00
26807;BME280;14380;49.910;6.792;2023-02-20T09:56:24;99804.09;;;8.29;100.00
26807;BME280;14380;49.910;6.792;2023-02-20T09:58:57;99797.38;;;8.51;100.00
26807;BME280;14380;49.910;6.792;2023-02-20T10:01:27;99798.19;;;8.21;100.00
26807;BME280;14380;49.910;6.792;2023-02-20T10:03:55;99801.44;;;8.61;100.00
26807;BME280;14380;49.910;6.792;2023-02-20T10:06:24;99792.81;;;8.56;100.00
26807;BME280;14380;49.910;6.792;2023-02-20T10:08:53;99797.94;;;8.30;100.00
26807;BME280;14380;49.910;6.792;2023-02-20T10:11:30;99793.13;;;8.75;100.00
26807;BME280;14380;49.910;6.792;2023-02-20T10:14:23;99793.13;;;8.45;100.00
26807;BME280;14380;49.910;6.792;2023-02-20T10:16:58;99796.28;;;8.58;100.00
26807;BME280;14380;49.910;6.792;2023-02-20T10:19:35;99796.47;;;8.80;100.00
26807;BME280;14380;49.910;6.792;2023-02-20T10:22:08;99790.47;;;8.76;100.00
26807;BME280;14380;49.910;6.792;2023-02-20T10:24:49;99786.69;;;9.12;100.00
26807;BME280;14380;49.910;6.792;2023-02-20T10:27:29;99791.66;;;8.95;100.00
26807;BME280;14380;49.910;6.792;2023-02-20T10:29:57;99799.34;;;9.01;100.00
26807;BME280;14380;49.910;6.792;2023-02-20T10:32:30;99790.47;;;9.03;100.00
26807;BME280;14380;49.910;6.792;2023-02-20T10:35:00;99786.28;;;9.25;100.00
26807;BME280;14380;49.910;6.792;2023-02-20T10:37:36;99784.59;;;9.49;100.00
26807;BME280;14380;49.910;6.792;2023-02-20T10:40:10;99784.13;;;9.63;100.00
26807;BME280;14380;49.910;6.792;2023-02-20T10:42:44;99789.88;;;9.49;100.00
26807;BME280;14380;49.910;6.792;2023-02-20T10:45:16;99795.19;;;8.93;100.00
26807;BME280;14380;49.910;6.792;2023-02-20T10:47:49;99784.19;;;9.34;100.00
26807;BME280;14380;49.910;6.792;2023-02-20T10:50:22;99783.06;;;9.42;100.00
26807;BME280;14380;49.910;6.792;2023-02-20T10:52:53;99790.50;;;9.56;100.00
26807;BME280;14380;49.910;6.792;2023-02-20T10:55:25;99796.34;;;9.65;100.00
26807;BME280;14380;49.910;6.792;2023-02-20T10:57:56;99799.44;;;9.51;100.00
26807;BME280;14380;49.910;6.792;2023-02-20T11:00:31;99795.03;;;10.03;100.00
26807;BME280;14380;49.910;6.792;2023-02-20T11:03:06;99792.91;;;9.63;100.00
26807;BME280;14380;49.910;6.792;2023-02-20T11:05:38;99784.59;;;9.74;100.00
26807;BME280;14380;49.910;6.792;2023-02-20T11:08:06;99775.81;;;9.99;100.00
26807;BME280;14380;49.910;6.792;2023-02-20T11:10:34;99787.34;;;9.96;100.00
26807;BME280;14380;49.910;6.792;2023-02-20T11:13:03;99770.47;;;10.01;100.00
26807;BME280;14380;49.910;6.792;2023-02-20T11:15:33;99769.50;;;10.03;100.00
26807;BME280;14380;49.910;6.792;2023-02-20T11:18:06;99757.81;;;10.10;100.00
26807;BME280;14380;49.910;6.792;2023-02-20T11:20:43;99743.47;;;10.41;100.00
26807;BME280;14380;49.910;6.792;2023-02-20T11:23:33;99738.41;;;10.81;100.00
26807;BME280;14380;49.910;6.792;2023-02-20T11:26:21;99739.94;;;11.30;100.00
26807;BME280;14380;49.910;6.792;2023-02-20T11:28:59;99730.66;;;11.61;100.00
26807;BME280;14380;49.910;6.792;2023-02-20T11:31:28;99733.84;;;11.28;97.92
26807;BME280;14380;49.910;6.792;2023-02-20T11:33:57;99719.25;;;11.19;98.21
26807;BME280;14380;49.910;6.792;2023-02-20T11:36:26;99717.78;;;11.33;97.06
26807;BME280;14380;49.910;6.792;2023-02-20T11:38:57;99717.81;;;10.90;99.08
26807;BME280;14380;49.910;6.792;2023-02-20T11:41:27;99716.28;;;11.48;98.57
26807;BME280;14380;49.910;6.792;2023-02-20T11:44:07;99709.84;;;11.12;95.33
26807;BME280;14380;49.910;6.792;2023-02-20T11:46:43;99701.50;;;11.42;98.04
26807;BME280;14380;49.910;6.792;2023-02-20T11:49:23;99699.78;;;11.41;96.29
26807;BME280;14380;49.910;6.792;2023-02-20T11:51:51;99694.94;;;11.71;98.53
26807;BME280;14380;49.910;6.792;2023-02-20T11:54:20;99697.50;;;11.73;96.57
26807;BME280;14380;49.910;6.792;2023-02-20T11:56:57;99691.34;;;11.53;97.06
26807;BME280;14380;49.910;6.792;2023-02-20T11:59:32;99686.09;;;11.92;96.62
26807;BME280;14380;49.910;6.792;2023-02-20T12:02:11;99674.84;;;11.67;96.93
26807;BME280;14380;49.910;6.792;2023-02-20T12:04:39;99674.16;;;11.83;93.43
26807;BME280;14380;49.910;6.792;2023-02-20T12:07:16;99672.44;;;11.82;93.83
26807;BME280;14380;49.910;6.792;2023-02-20T12:09:48;99667.88;;;12.04;93.14
26807;BME280;14380;49.910;6.792;2023-02-20T12:12:16;99662.31;;;12.11;94.64
26807;BME280;14380;49.910;6.792;2023-02-20T12:14:47;99664.41;;;11.83;93.72
26807;BME280;14380;49.910;6.792;2023-02-20T12:17:21;99659.13;;;11.83;91.92
26807;BME280;14380;49.910;6.792;2023-02-20T12:20:00;99662.19;;;11.74;92.50
26807;BME280;14380;49.910;6.792;2023-02-20T12:22:32;99650.13;;;12.26;92.57
26807;BME280;14380;49.910;6.792;2023-02-20T12:25:11;99657.34;;;12.41;90.76
26807;BME280;14380;49.910;6.792;2023-02-20T12:27:59;99645.31;;;12.34;90.91
26807;BME280;14380;49.910;6.792;2023-02-20T12:30:40;99645.75;;;11.86;89.65
26807;BME280;14380;49.910;6.792;2023-02-20T12:33:37;99644.25;;;11.81;89.74
26807;BME280;14380;49.910;6.792;2023-02-20T12:36:10;99640.28;;;12.10;90.91
26807;BME280;14380;49.910;6.792;2023-02-20T12:38:47;99627.63;;;12.54;88.36
26807;BME280;14380;49.910;6.792;2023-02-20T12:44:13;99627.00;;;13.01;89.11
26807;BME280;14380;49.910;6.792;2023-02-20T12:46:52;99620.28;;;12.76;87.87
26807;BME280;14380;49.910;6.792;2023-02-20T12:49:39;99619.91;;;13.02;89.04
26807;BME280;14380;49.910;6.792;2023-02-20T12:52:33;99606.44;;;12.89;87.09
26807;BME280;14380;49.910;6.792;2023-02-20T12:55:11;99604.41;;;13.28;85.03
26807;BME280;14380;49.910;6.792;2023-02-20T12:57:47;99606.34;;;13.08;82.73
26807;BME280;14380;49.910;6.792;2023-02-20T13:00:24;99604.13;;;12.46;84.90
26807;BME280;14380;49.910;6.792;2023-02-20T13:03:00;99600.34;;;12.87;84.83
26807;BME280;14380;49.910;6.792;2023-02-20T13:05:31;99595.94;;;13.03;84.34
26807;BME280;14380;49.910;6.792;2023-02-20T13:08:04;99586.69;;;12.59;82.40
26807;BME280;14380;49.910;6.792;2023-02-20T13:10:40;99578.75;;;13.28;84.29
26807;BME280;14380;49.910;6.792;2023-02-20T13:13:09;99565.78;;;13.39;80.38
26807;BME280;14380;49.910;6.792;2023-02-20T13:15:40;99569.75;;;13.48;83.38
26807;BME280;14380;49.910;6.792;2023-02-20T13:18:13;99568.16;;;13.28;82.22
26807;BME280;14380;49.910;6.792;2023-02-20T13:20:45;99562.25;;;13.23;81.05
26807;BME280;14380;49.910;6.792;2023-02-20T13:23:30;99552.56;;;13.56;80.66